Time;durP1;ratioP1;P1;durP2;ratioP2;P2;SDS_P1;SDS_P2;PMS_P1;PMS_P2;Temp;Humidity;BMP_temperature;BMP_pressure;BME280_temperature;BME280_humidity;BME280_pressure;Samples;Min_cycle;Max_cycle;Signal;HPM_P1;HPM_P2
2022/07/07 00:01:36;;;;;;;3.10;2.40;;;19.40;54.50;;;;;;5022039;28;20194;-77
2022/07/07 00:04:02;;;;;;;4.57;2.10;;;19.40;54.20;;;;;;5013450;28;20184;-78
2022/07/07 00:06:28;;;;;;;7.23;2.40;;;19.50;53.90;;;;;;5014690;28;20253;-78
2022/07/07 00:08:54;;;;;;;5.47;2.40;;;19.40;55.10;;;;;;5014395;28;20212;-79
2022/07/07 00:11:25;;;;;;;4.53;2.77;;;19.40;55.40;;;;;;5014457;28;20206;-79
2022/07/07 00:13:53;;;;;;;5.23;2.70;;;19.30;56.40;;;;;;5013224;28;20599;-79
2022/07/07 00:16:19;;;;;;;6.00;2.70;;;19.30;57.40;;;;;;5014106;28;20233;-78
2022/07/07 00:18:45;;;;;;;4.00;2.47;;;19.30;58.80;;;;;;5014063;28;20182;-77
2022/07/07 00:21:11;;;;;;;5.57;2.57;;;19.30;57.40;;;;;;5014603;28;20177;-78
2022/07/07 00:23:37;;;;;;;4.37;2.53;;;19.40;56.70;;;;;;5016412;28;20172;-78
2022/07/07 00:26:03;;;;;;;5.20;2.77;;;19.30;57.60;;;;;;5039061;28;20211;-77
2022/07/07 00:28:29;;;;;;;4.43;2.70;;;19.40;57.00;;;;;;5015557;28;20662;-78
2022/07/07 00:30:55;;;;;;;3.13;2.17;;;19.40;56.60;;;;;;5018183;28;20213;-78
2022/07/07 00:33:20;;;;;;;3.97;2.70;;;19.20;59.00;;;;;;5022196;28;20177;-78
2022/07/07 00:35:46;;;;;;;3.80;2.50;;;19.20;60.50;;;;;;5037232;28;20186;-78
2022/07/07 00:38:12;;;;;;;4.07;2.53;;;19.20;60.80;;;;;;5014599;28;20553;-77
2022/07/07 00:40:38;;;;;;;6.43;2.70;;;19.30;58.50;;;;;;5013948;28;20170;-78
2022/07/07 00:43:04;;;;;;;4.10;2.73;;;19.30;57.80;;;;;;5013814;28;20177;-77
2022/07/07 00:45:30;;;;;;;4.97;2.40;;;19.20;60.30;;;;;;5014121;28;20219;-78
2022/07/07 00:47:56;;;;;;;4.73;2.70;;;19.20;60.00;;;;;;5013625;28;20203;-77
2022/07/07 00:50:23;;;;;;;4.53;2.70;;;19.20;59.50;;;;;;5013933;28;20202;-79
2022/07/07 00:52:49;;;;;;;3.00;2.40;;;19.20;59.60;;;;;;5013809;28;20627;-78
2022/07/07 00:55:14;;;;;;;3.63;2.27;;;19.30;58.40;;;;;;5013893;28;20175;-79
2022/07/07 00:57:40;;;;;;;5.40;2.53;;;19.30;57.90;;;;;;5014156;28;20592;-79
2022/07/07 01:00:09;;;;;;;3.73;2.60;;;19.20;60.70;;;;;;5013516;28;20186;-77
2022/07/07 01:02:35;;;;;;;3.60;2.60;;;19.20;60.40;;;;;;5012344;28;20224;-78
2022/07/07 01:05:05;;;;;;;3.73;2.50;;;19.20;60.70;;;;;;5013883;28;20177;-77
2022/07/07 01:07:32;;;;;;;6.13;2.47;;;19.20;60.40;;;;;;5013672;28;20294;-79
2022/07/07 01:09:58;;;;;;;3.00;2.30;;;19.10;60.60;;;;;;5013218;28;20624;-77
2022/07/07 01:12:24;;;;;;;4.43;2.70;;;19.10;63.50;;;;;;5013574;28;20212;-77
2022/07/07 01:14:51;;;;;;;4.13;2.40;;;19.10;62.90;;;;;;5013707;28;20179;-78
2022/07/07 01:17:16;;;;;;;3.30;2.60;;;19.10;61.60;;;;;;5013236;28;20170;-78
2022/07/07 01:19:42;;;;;;;3.43;2.13;;;19.20;60.10;;;;;;5013692;28;20648;-77
2022/07/07 01:22:20;;;;;;;5.07;2.30;;;19.10;62.60;;;;;;5013252;28;20178;-77
2022/07/07 01:24:45;;;;;;;4.80;2.57;;;19.20;60.50;;;;;;5013488;28;20658;-78
2022/07/07 01:27:11;;;;;;;4.77;2.33;;;19.30;58.60;;;;;;5013463;28;20197;-79
2022/07/07 01:29:42;;;;;;;4.13;2.50;;;19.30;58.00;;;;;;5013549;28;20538;-78
2022/07/07 01:32:08;;;;;;;4.00;2.50;;;19.30;57.70;;;;;;5013189;28;20210;-77
2022/07/07 01:34:39;;;;;;;4.33;2.53;;;19.40;56.70;;;;;;5013389;28;20164;-78
2022/07/07 01:37:06;;;;;;;3.60;2.47;;;19.20;58.20;;;;;;5013448;28;20573;-78
2022/07/07 01:39:32;;;;;;;5.57;3.10;;;19.20;59.40;;;;;;5015789;28;20175;-77
2022/07/07 01:41:58;;;;;;;4.60;2.70;;;19.20;59.40;;;;;;5017479;28;20172;-77
2022/07/07 01:44:24;;;;;;;3.90;2.60;;;19.20;60.30;;;;;;5017590;28;20224;-77
2022/07/07 01:46:50;;;;;;;5.00;2.90;;;19.10;62.10;;;;;;5016960;28;20646;-77
2022/07/07 01:49:16;;;;;;;4.80;2.80;;;19.00;64.00;;;;;;5017261;28;20407;-80
2022/07/07 01:51:42;;;;;;;3.70;2.80;;;19.00;65.70;;;;;;5017038;28;20205;-78
2022/07/07 01:54:08;;;;;;;3.93;2.70;;;19.00;66.70;;;;;;5017005;28;20225;-77
2022/07/07 01:56:34;;;;;;;5.67;2.63;;;19.00;65.90;;;;;;5016872;28;20184;-78
2022/07/07 01:59:00;;;;;;;7.97;2.77;;;18.90;66.90;;;;;;5016825;28;20167;-78
2022/07/07 02:01:25;;;;;;;4.73;2.60;;;19.10;63.80;;;;;;5017174;28;20187;-77
2022/07/07 02:03:51;;;;;;;5.40;2.60;;;19.00;64.20;;;;;;5017634;28;20201;-78
2022/07/07 02:06:16;;;;;;;6.10;2.80;;;19.00;66.00;;;;;;5024029;28;20171;-77
2022/07/07 02:08:42;;;;;;;4.73;2.70;;;19.00;67.10;;;;;;5019153;28;20679;-78
2022/07/07 02:11:14;;;;;;;4.10;3.00;;;19.10;65.70;;;;;;5016788;28;20259;-78
2022/07/07 02:13:48;;;;;;;5.03;3.10;;;19.20;62.70;;;;;;5016945;28;20163;-78
2022/07/07 02:16:16;;;;;;;4.60;2.93;;;19.10;65.10;;;;;;5016694;28;20182;-78
2022/07/07 02:18:43;;;;;;;4.73;2.53;;;19.10;64.30;;;;;;5017020;28;20198;-77
2022/07/07 02:21:11;;;;;;;4.97;3.17;;;19.10;65.00;;;;;;5016642;28;20178;-78
2022/07/07 02:23:38;;;;;;;4.80;2.83;;;19.10;64.60;;;;;;5016369;28;20191;-78
2022/07/07 02:26:04;;;;;;;5.80;3.27;;;19.10;64.50;;;;;;5016605;28;20235;-78
2022/07/07 02:28:30;;;;;;;5.23;2.97;;;19.10;63.80;;;;;;5016153;28;20186;-78
2022/07/07 02:30:56;;;;;;;5.33;2.97;;;19.10;65.00;;;;;;5016216;28;20267;-78
2022/07/07 02:33:23;;;;;;;3.73;2.90;;;19.10;66.30;;;;;;5016273;28;20651;-78
2022/07/07 02:35:50;;;;;;;4.17;2.63;;;19.10;64.90;;;;;;5016504;28;20642;-76
2022/07/07 02:38:16;;;;;;;5.70;3.40;;;19.10;65.30;;;;;;5016568;28;20164;-77
2022/07/07 02:40:43;;;;;;;4.60;3.00;;;19.20;64.50;;;;;;5016392;28;20570;-77
2022/07/07 02:43:15;;;;;;;7.27;3.13;;;19.20;62.50;;;;;;5015645;28;20204;-77
2022/07/07 02:45:45;;;;;;;5.90;3.00;;;19.20;60.70;;;;;;5016582;28;20225;-77
2022/07/07 02:48:12;;;;;;;5.70;3.20;;;19.20;63.60;;;;;;5016189;28;20188;-79
2022/07/07 02:50:39;;;;;;;5.57;3.03;;;19.10;64.80;;;;;;5016575;28;20192;-77
2022/07/07 02:53:06;;;;;;;6.20;3.50;;;19.10;66.40;;;;;;5016751;28;20168;-78
2022/07/07 02:55:33;;;;;;;4.73;3.07;;;19.10;65.00;;;;;;5032286;28;20259;-77
2022/07/07 02:57:59;;;;;;;4.10;3.20;;;19.00;69.80;;;;;;5016427;28;20224;-77
2022/07/07 03:00:26;;;;;;;5.67;3.60;;;19.00;69.80;;;;;;5016256;28;20159;-78
2022/07/07 03:02:53;;;;;;;5.27;2.97;;;19.10;68.10;;;;;;5016167;28;20176;-77
2022/07/07 03:05:23;;;;;;;7.47;3.63;;;19.10;67.70;;;;;;5016205;28;20167;-77
2022/07/07 03:07:49;;;;;;;6.90;3.90;;;19.10;65.20;;;;;;5015304;28;20182;-77
2022/07/07 03:10:15;;;;;;;6.07;3.27;;;19.20;65.30;;;;;;5016546;28;20175;-78
2022/07/07 03:12:42;;;;;;;6.20;3.33;;;19.10;66.40;;;;;;5018372;28;20178;-78
2022/07/07 03:15:08;;;;;;;5.27;3.30;;;19.10;67.90;;;;;;5019186;28;20225;-76
2022/07/07 03:17:41;;;;;;;4.23;3.10;;;19.10;66.80;;;;;;5024813;28;20185;-77
2022/07/07 03:20:08;;;;;;;10.67;3.73;;;19.10;68.70;;;;;;5023826;28;20172;-78
2022/07/07 03:22:33;;;;;;;5.70;3.43;;;19.00;69.30;;;;;;5028146;28;20695;-75
2022/07/07 03:24:59;;;;;;;6.20;4.07;;;19.00;70.30;;;;;;5034432;28;20229;-77
2022/07/07 03:27:25;;;;;;;12.00;4.03;;;19.10;68.70;;;;;;5034022;28;20179;-77
2022/07/07 03:29:51;;;;;;;5.73;3.67;;;19.20;67.00;;;;;;5033723;28;20739;-77
2022/07/07 03:32:19;;;;;;;6.47;3.87;;;19.10;66.60;;;;;;5020391;28;20280;-77
2022/07/07 03:34:45;;;;;;;7.47;3.57;;;19.10;67.90;;;;;;5031157;28;20168;-76
2022/07/07 03:37:10;;;;;;;6.53;3.47;;;19.00;68.80;;;;;;5015302;28;20200;-78
2022/07/07 03:39:36;;;;;;;6.00;3.90;;;18.90;72.20;;;;;;5015305;28;20181;-77
2022/07/07 03:42:02;;;;;;;5.47;3.70;;;19.00;71.80;;;;;;5014907;28;20178;-77
2022/07/07 03:44:28;;;;;;;5.03;3.63;;;19.00;71.40;;;;;;5015299;28;20248;-76
2022/07/07 03:46:54;;;;;;;6.67;4.17;;;19.00;71.60;;;;;;5030256;28;20177;-76
2022/07/07 03:49:20;;;;;;;5.60;3.37;;;19.00;72.20;;;;;;5018404;28;20186;-78
2022/07/07 03:51:48;;;;;;;4.37;3.30;;;18.90;74.30;;;;;;5014976;28;20213;-77
2022/07/07 03:54:15;;;;;;;7.70;4.10;;;18.90;73.40;;;;;;5014467;28;20228;-77
2022/07/07 03:56:41;;;;;;;6.87;3.70;;;18.90;75.30;;;;;;5014563;28;20178;-77
2022/07/07 03:59:06;;;;;;;7.47;3.53;;;18.90;74.10;;;;;;5014929;28;20176;-78
2022/07/07 04:01:32;;;;;;;11.60;4.13;;;19.00;74.00;;;;;;5013767;28;20185;-77
2022/07/07 04:03:58;;;;;;;7.73;3.77;;;19.00;72.20;;;;;;5013330;28;20178;-78
2022/07/07 04:06:24;;;;;;;5.67;3.27;;;19.00;71.30;;;;;;5014727;28;20539;-78
2022/07/07 04:08:49;;;;;;;5.80;3.47;;;19.10;69.30;;;;;;5014718;28;20649;-78
2022/07/07 04:11:16;;;;;;;8.03;3.73;;;19.10;68.70;;;;;;5014319;28;20214;-79
2022/07/07 04:13:42;;;;;;;7.17;3.43;;;19.10;67.70;;;;;;5014558;28;20585;-78
2022/07/07 04:16:07;;;;;;;4.90;2.80;;;19.10;67.70;;;;;;5014482;28;20206;-76
2022/07/07 04:18:33;;;;;;;4.60;2.50;;;19.10;66.40;;;;;;5014396;28;20635;-77
2022/07/07 04:20:59;;;;;;;5.97;2.63;;;19.00;65.30;;;;;;5014346;28;20515;-77
2022/07/07 04:23:25;;;;;;;7.53;2.63;;;19.00;66.70;;;;;;5014445;28;20171;-78
2022/07/07 04:25:50;;;;;;;5.53;2.40;;;19.00;66.80;;;;;;5014080;28;20177;-77
2022/07/07 04:28:16;;;;;;;4.83;2.50;;;19.00;63.40;;;;;;5014062;28;20195;-76
2022/07/07 04:30:42;;;;;;;4.87;2.10;;;19.00;63.50;;;;;;5014559;28;20272;-77
2022/07/07 04:33:07;;;;;;;3.03;1.77;;;19.00;64.40;;;;;;5014302;28;20189;-77
2022/07/07 04:35:33;;;;;;;3.30;1.80;;;18.90;68.60;;;;;;5014569;28;20182;-77
2022/07/07 04:37:59;;;;;;;2.67;1.63;;;18.70;71.70;;;;;;5014277;28;20243;-78
2022/07/07 04:40:24;;;;;;;5.83;1.77;;;18.70;77.20;;;;;;5014160;28;20202;-77
2022/07/07 04:42:50;;;;;;;6.50;1.80;;;18.50;84.10;;;;;;5015852;28;20174;-78
2022/07/07 04:45:16;;;;;;;4.23;1.83;;;18.40;90.70;;;;;;5014557;28;20653;-78
2022/07/07 04:47:42;;;;;;;4.07;1.97;;;18.40;91.50;;;;;;5012953;28;20290;-78
2022/07/07 04:50:09;;;;;;;5.50;2.00;;;18.40;92.10;;;;;;5014213;28;20253;-78
2022/07/07 04:52:36;;;;;;;4.63;1.87;;;18.40;92.80;;;;;;5013843;28;20216;-78
2022/07/07 04:55:02;;;;;;;8.57;2.60;;;18.40;93.20;;;;;;5013840;28;20180;-76
2022/07/07 04:57:28;;;;;;;3.93;2.10;;;18.60;92.10;;;;;;5013851;28;20242;-81
2022/07/07 04:59:54;;;;;;;3.70;2.03;;;18.50;91.50;;;;;;5014059;28;20166;-77
2022/07/07 05:02:20;;;;;;;4.83;2.10;;;18.60;92.30;;;;;;5013537;28;20170;-78
2022/07/07 05:04:45;;;;;;;4.73;2.13;;;18.60;91.70;;;;;;5013667;28;20240;-77
2022/07/07 05:07:11;;;;;;;5.07;2.50;;;18.60;90.70;;;;;;5013812;28;20246;-78
2022/07/07 05:09:37;;;;;;;5.90;2.00;;;18.60;91.00;;;;;;5013087;28;20697;-77
2022/07/07 05:12:03;;;;;;;6.27;2.03;;;18.80;90.00;;;;;;5014547;28;20206;-77
2022/07/07 05:14:29;;;;;;;4.83;2.10;;;18.80;87.40;;;;;;5017801;28;20167;-78
2022/07/07 05:16:55;;;;;;;6.50;1.90;;;18.80;86.20;;;;;;5016376;28;20518;-77
2022/07/07 05:19:22;;;;;;;4.73;2.00;;;18.70;87.30;;;;;;5015800;28;20176;-78
2022/07/07 05:21:48;;;;;;;4.13;1.93;;;18.70;87.20;;;;;;5013826;28;20182;-79
2022/07/07 05:24:14;;;;;;;3.87;1.80;;;18.90;83.40;;;;;;5014568;28;20197;-79
2022/07/07 05:26:40;;;;;;;4.87;1.90;;;18.90;83.40;;;;;;5023862;28;20174;-76
2022/07/07 05:29:06;;;;;;;5.57;1.97;;;18.90;81.30;;;;;;5019209;28;20182;-79
2022/07/07 05:31:32;;;;;;;5.37;1.90;;;19.00;82.30;;;;;;5013112;28;20517;-77
2022/07/07 05:33:57;;;;;;;3.10;1.70;;;18.90;83.30;;;;;;5013488;28;20224;-78
2022/07/07 05:36:23;;;;;;;5.00;1.97;;;18.80;81.20;;;;;;5012977;28;20199;-78
2022/07/07 05:38:49;;;;;;;3.50;1.80;;;18.90;85.10;;;;;;5013341;28;20200;-78
2022/07/07 05:41:15;;;;;;;4.50;1.70;;;18.80;85.20;;;;;;5013463;28;20261;-78
2022/07/07 05:43:40;;;;;;;2.00;1.40;;;18.80;84.50;;;;;;5013788;28;20196;-79
2022/07/07 05:46:06;;;;;;;3.87;1.80;;;18.80;83.10;;;;;;5029035;28;20182;-77
2022/07/07 05:48:32;;;;;;;5.57;2.00;;;18.90;81.50;;;;;;5013354;28;20252;-83
2022/07/07 05:50:57;;;;;;;5.13;1.80;;;18.80;84.50;;;;;;5012880;28;20199;-78
2022/07/07 05:53:23;;;;;;;4.03;1.90;;;18.70;87.70;;;;;;5012975;28;20186;-77
2022/07/07 05:55:49;;;;;;;4.23;1.80;;;18.70;90.40;;;;;;5013455;28;20170;-79
2022/07/07 05:58:15;;;;;;;4.67;1.60;;;18.50;91.90;;;;;;5013186;28;20209;-79
2022/07/07 06:00:41;;;;;;;2.37;1.27;;;18.10;95.60;;;;;;5013351;28;20174;-78
2022/07/07 06:03:06;;;;;;;2.60;1.20;;;17.80;99.60;;;;;;5028511;28;20610;-76
2022/07/07 06:05:32;;;;;;;2.20;0.93;;;17.50;99.90;;;;;;5011958;28;20175;-78
2022/07/07 06:07:58;;;;;;;3.40;0.80;;;17.30;99.90;;;;;;5028067;28;20175;-78
2022/07/07 06:10:23;;;;;;;1.80;0.77;;;17.30;99.90;;;;;;5012792;28;20657;-78
2022/07/07 06:12:49;;;;;;;1.60;0.80;;;17.00;99.90;;;;;;5012888;28;20681;-77
2022/07/07 06:15:17;;;;;;;1.50;0.90;;;17.00;99.90;;;;;;5012805;28;20175;-78
2022/07/07 06:17:43;;;;;;;1.83;0.80;;;17.00;99.90;;;;;;5013167;28;20204;-78
2022/07/07 06:20:09;;;;;;;3.97;0.90;;;17.00;99.90;;;;;;5013730;28;20608;-80
2022/07/07 06:22:35;;;;;;;2.33;0.97;;;17.10;99.90;;;;;;5012832;28;20244;-78
2022/07/07 06:25:01;;;;;;;3.97;1.10;;;17.10;99.90;;;;;;5014519;28;20622;-77
2022/07/07 06:27:27;;;;;;;2.40;1.07;;;17.20;99.90;;;;;;5016809;28;20635;-76
2022/07/07 06:29:55;;;;;;;1.43;0.80;;;17.30;99.90;;;;;;5016944;28;20197;-78
2022/07/07 06:32:21;;;;;;;2.07;0.70;;;17.30;99.90;;;;;;5017901;28;20216;-80
2022/07/07 06:34:47;;;;;;;1.07;0.60;;;17.30;99.20;;;;;;5035140;28;20561;-77
2022/07/07 06:37:12;;;;;;;2.63;0.93;;;17.30;98.00;;;;;;5036601;28;20174;-78
2022/07/07 06:39:38;;;;;;;3.03;0.70;;;17.20;98.90;;;;;;5035423;28;20169;-77
2022/07/07 06:42:04;;;;;;;1.03;0.60;;;17.30;99.30;;;;;;5036111;28;20172;-78
2022/07/07 06:44:31;;;;;;;1.97;0.70;;;17.40;98.30;;;;;;5036583;28;20170;-78
2022/07/07 06:47:00;;;;;;;2.10;0.70;;;17.50;97.40;;;;;;5035320;28;20192;-79
2022/07/07 06:49:27;;;;;;;2.40;0.90;;;17.50;96.70;;;;;;5036503;28;20168;-79
2022/07/07 06:51:53;;;;;;;2.97;0.97;;;17.60;96.10;;;;;;5042199;28;20197;-79
2022/07/07 06:54:19;;;;;;;3.37;1.30;;;17.70;95.80;;;;;;5036869;28;20169;-77
2022/07/07 06:56:45;;;;;;;3.37;1.30;;;17.80;95.20;;;;;;5034817;28;20600;-85
2022/07/07 06:59:11;;;;;;;3.50;1.70;;;17.90;93.70;;;;;;5036359;28;20221;-77
2022/07/07 07:01:37;;;;;;;3.50;1.90;;;17.80;92.50;;;;;;5036786;28;20178;-79
2022/07/07 07:04:03;;;;;;;4.50;2.27;;;17.80;92.90;;;;;;5036566;28;20279;-80
2022/07/07 07:06:29;;;;;;;3.57;1.80;;;18.00;92.70;;;;;;5044996;28;20169;-77
2022/07/07 07:08:55;;;;;;;4.20;1.73;;;18.10;91.40;;;;;;5041532;28;20631;-79
2022/07/07 07:11:27;;;;;;;4.00;2.00;;;18.10;87.20;;;;;;5035963;28;20225;-79
2022/07/07 07:13:53;;;;;;;6.70;2.30;;;18.10;86.00;;;;;;5036676;28;20181;-77
2022/07/07 07:16:19;;;;;;;4.03;2.03;;;18.10;84.60;;;;;;5036451;28;20175;-78
2022/07/07 07:18:45;;;;;;;2.33;1.60;;;18.20;78.30;;;;;;5036654;28;20174;-78
2022/07/07 07:21:11;;;;;;;5.13;1.67;;;18.20;79.00;;;;;;5039747;28;20177;-78
2022/07/07 07:23:38;;;;;;;3.43;1.50;;;18.30;75.90;;;;;;5049320;28;20168;-76
2022/07/07 07:26:05;;;;;;;6.00;1.60;;;18.40;73.90;;;;;;5048918;28;20184;-75
2022/07/07 07:28:31;;;;;;;6.07;1.50;;;18.40;73.40;;;;;;5049327;28;20185;-76
2022/07/07 07:30:57;;;;;;;4.80;1.57;;;18.50;63.10;;;;;;5043067;28;20201;-83
2022/07/07 07:33:23;;;;;;;5.20;1.53;;;18.50;59.70;;;;;;5035388;28;20181;-77
2022/07/07 07:35:49;;;;;;;5.23;1.30;;;18.70;50.90;;;;;;5039022;28;20214;-79
2022/07/07 07:38:15;;;;;;;5.73;1.40;;;18.70;47.60;;;;;;5040560;28;20170;-78
2022/07/07 07:40:41;;;;;;;5.43;1.20;;;18.80;31.80;;;;;;5039941;28;20697;-83
2022/07/07 07:43:06;;;;;;;4.93;1.30;;;18.70;24.00;;;;;;5036200;28;20249;-84
2022/07/07 07:45:32;;;;;;;3.37;1.03;;;18.60;23.30;;;;;;5035113;28;20586;-78
2022/07/07 07:48:01;;;;;;;5.47;1.40;;;18.60;25.20;;;;;;5035121;28;20254;-78
2022/07/07 07:50:27;;;;;;;6.80;1.30;;;18.60;22.60;;;;;;5035770;28;20181;-80
2022/07/07 07:52:53;;;;;;;5.07;1.67;;;18.70;19.10;;;;;;5035668;28;20355;-77
2022/07/07 07:55:20;;;;;;;4.10;1.30;;;18.80;17.40;;;;;;5036906;28;20685;-83
2022/07/07 07:57:46;;;;;;;6.20;1.50;;;18.90;10.20;;;;;;5036111;28;20539;-84
2022/07/07 08:00:14;;;;;;;4.03;1.40;;;18.90;3.70;;;;;;5034766;28;20223;-81
2022/07/07 08:02:40;;;;;;;5.13;1.23;;;18.90;1.00;;;;;;5035841;28;20212;-77
2022/07/07 08:05:07;;;;;;;4.97;1.60;;;19.00;1.00;;;;;;5033540;28;20204;-85
2022/07/07 08:07:33;;;;;;;5.80;1.73;;;19.00;1.10;;;;;;5034923;28;20172;-77
2022/07/07 08:10:00;;;;;;;7.33;1.70;;;19.10;1.00;;;;;;5034630;28;20189;-84
2022/07/07 08:12:26;;;;;;;5.47;1.33;;;19.20;1.00;;;;;;5034466;28;20218;-78
2022/07/07 08:14:51;;;;;;;7.23;1.97;;;19.20;1.00;;;;;;5033007;28;20607;-76
2022/07/07 08:17:18;;;;;;;6.40;1.50;;;19.00;1.00;;;;;;5034587;28;20537;-79
2022/07/07 08:19:44;;;;;;;5.43;1.63;;;19.10;1.00;;;;;;5034243;28;20166;-78
2022/07/07 08:22:10;;;;;;;8.10;1.70;;;19.10;1.00;;;;;;5034573;28;20166;-77
2022/07/07 08:24:36;;;;;;;5.17;1.40;;;19.00;1.00;;;;;;5034434;28;20200;-78
2022/07/07 08:27:03;;;;;;;5.57;1.50;;;19.10;1.00;;;;;;5034718;28;20231;-78
2022/07/07 08:29:29;;;;;;;3.70;1.37;;;19.00;1.00;;;;;;5036219;28;20186;-77
2022/07/07 08:31:55;;;;;;;4.43;1.10;;;19.10;1.00;;;;;;5034123;28;20301;-85
2022/07/07 08:34:21;;;;;;;5.97;1.30;;;19.20;1.00;;;;;;5034299;28;20614;-77
2022/07/07 08:36:48;;;;;;;4.40;1.33;;;19.20;1.00;;;;;;5034634;28;20201;-78
2022/07/07 08:39:14;;;;;;;6.43;1.33;;;19.10;1.00;;;;;;5035977;28;20558;-86
2022/07/07 08:41:40;;;;;;;3.70;1.20;;;19.00;1.00;;;;;;5043606;28;20177;-81
2022/07/07 08:44:06;;;;;;;4.63;1.37;;;19.00;1.00;;;;;;5038462;28;20174;-82
2022/07/07 08:46:32;;;;;;;2.97;1.20;;;19.10;1.00;;;;;;5035666;28;20534;-80
2022/07/07 08:48:57;;;;;;;5.83;1.60;;;19.10;1.00;;;;;;5037314;28;20174;-84
2022/07/07 08:51:25;;;;;;;5.03;1.43;;;19.10;1.00;;;;;;5035642;28;20212;-81
2022/07/07 08:53:51;;;;;;;6.57;1.37;;;19.10;1.00;;;;;;5036475;28;20200;-81
2022/07/07 08:56:19;;;;;;;6.50;1.23;;;19.00;1.00;;;;;;5036604;28;20689;-84
2022/07/07 08:58:45;;;;;;;2.70;0.90;;;18.70;3.60;;;;;;5034612;28;20180;-77
2022/07/07 09:01:10;;;;;;;2.57;0.97;;;18.20;23.80;;;;;;5033847;28;20219;-77
2022/07/07 09:03:36;;;;;;;4.97;1.10;;;18.00;45.40;;;;;;5038586;28;20175;-76
2022/07/07 09:06:02;;;;;;;5.03;1.00;;;17.80;53.20;;;;;;5040634;28;20170;-78
2022/07/07 09:08:30;;;;;;;3.63;1.00;;;17.80;53.50;;;;;;5038002;28;20638;-78
2022/07/07 09:10:56;;;;;;;4.83;0.90;;;17.80;53.00;;;;;;5034962;28;20306;-77
2022/07/07 09:13:28;;;;;;;3.03;0.97;;;17.70;47.60;;;;;;5033448;28;20235;-78
2022/07/07 09:15:58;;;;;;;4.10;1.10;;;17.80;36.80;;;;;;5028022;28;20182;-79
2022/07/07 09:18:36;;;;;;;2.87;0.90;;;17.90;34.90;;;;;;5019047;28;20186;-78
2022/07/07 09:21:05;;;;;;;2.73;1.00;;;18.10;31.00;;;;;;5013861;28;20169;-79
2022/07/07 09:23:31;;;;;;;2.77;0.67;;;18.40;22.70;;;;;;5012576;28;20184;-80
2022/07/07 09:25:58;;;;;;;2.03;1.00;;;18.50;11.90;;;;;;5013843;28;20166;-78
2022/07/07 09:28:26;;;;;;;4.20;1.00;;;18.70;4.80;;;;;;5013974;28;20646;-78
2022/07/07 09:30:53;;;;;;;5.30;1.07;;;18.90;1.50;;;;;;5014824;28;20202;-80
2022/07/07 09:33:21;;;;;;;4.40;1.00;;;18.80;1.00;;;;;;5020292;28;20186;-76
2022/07/07 09:38:35;;;;;;;4.57;1.07;;;18.90;1.70;;;;;;5015221;28;20189;-78
2022/07/07 09:41:08;;;;;;;4.00;0.70;;;19.00;4.70;;;;;;5029495;28;20185;-77
2022/07/07 09:43:48;;;;;;;2.97;0.70;;;19.00;3.70;;;;;;5013436;28;20170;-76
2022/07/07 09:46:20;;;;;;;2.47;0.90;;;19.00;1.00;;;;;;5014548;28;20181;-77
2022/07/07 09:48:48;;;;;;;5.57;1.20;;;18.80;9.60;;;;;;5013684;28;20555;-77
2022/07/07 09:51:27;;;;;;;4.60;1.00;;;18.80;10.90;;;;;;5014194;28;20202;-78
2022/07/07 09:54:00;;;;;;;4.67;1.13;;;18.80;14.60;;;;;;5014975;28;20170;-75
2022/07/07 09:56:31;;;;;;;3.67;0.90;;;18.60;24.70;;;;;;5014849;28;20209;-77
2022/07/07 09:58:58;;;;;;;3.67;0.97;;;18.60;29.30;;;;;;5020015;28;20236;-78
2022/07/07 10:01:29;;;;;;;5.07;1.03;;;18.60;24.80;;;;;;5021329;28;20193;-77
2022/07/07 10:03:58;;;;;;;3.47;1.40;;;18.60;28.60;;;;;;5017727;28;20710;-76
2022/07/07 10:06:26;;;;;;;6.80;1.23;;;18.60;31.70;;;;;;5017091;28;20250;-81
2022/07/07 10:08:56;;;;;;;6.63;1.60;;;18.70;38.20;;;;;;5016990;28;20186;-78
2022/07/07 10:11:25;;;;;;;5.23;1.13;;;18.70;36.90;;;;;;5017293;28;20202;-77
2022/07/07 10:13:54;;;;;;;5.40;1.50;;;18.70;37.10;;;;;;5015506;28;20521;-76
2022/07/07 10:16:20;;;;;;;3.83;1.10;;;18.60;32.00;;;;;;5020815;28;20198;-76
2022/07/07 10:18:47;;;;;;;2.17;1.13;;;18.40;33.60;;;;;;5024042;28;20166;-78
2022/07/07 10:21:14;;;;;;;5.17;1.20;;;18.50;38.70;;;;;;5017602;28;20238;-84
2022/07/07 10:23:40;;;;;;;5.23;1.20;;;18.50;39.50;;;;;;5032162;28;20572;-78
2022/07/07 10:26:09;;;;;;;1.90;1.03;;;18.50;39.40;;;;;;5023156;28;20269;-77
2022/07/07 10:28:59;;;;;;;2.30;1.10;;;18.50;32.30;;;;;;5019377;28;20684;-77
2022/07/07 10:31:28;;;;;;;2.47;1.03;;;18.70;24.70;;;;;;5016720;28;20209;-79
2022/07/07 10:33:57;;;;;;;1.77;0.80;;;18.70;22.80;;;;;;5016704;28;20170;-78
2022/07/07 10:36:22;;;;;;;4.60;1.30;;;18.90;11.80;;;;;;5017332;28;20167;-78
2022/07/07 10:38:52;;;;;;;3.17;0.90;;;19.10;6.20;;;;;;5032481;28;20182;-77
2022/07/07 10:41:24;;;;;;;4.60;1.43;;;19.10;1.00;;;;;;5032183;28;20178;-78
2022/07/07 10:44:03;;;;;;;3.60;1.13;;;19.20;1.10;;;;;;5017254;28;20280;-76
2022/07/07 10:46:29;;;;;;;4.30;1.20;;;18.90;6.10;;;;;;5016995;28;20177;-78
2022/07/07 10:49:07;;;;;;;3.30;1.10;;;18.70;17.90;;;;;;5016863;28;20171;-77
2022/07/07 10:51:54;;;;;;;3.13;1.20;;;18.70;28.60;;;;;;5018942;28;20222;-77
2022/07/07 10:54:40;;;;;;;3.47;1.20;;;18.60;39.20;;;;;;5022514;28;20199;-77
2022/07/07 10:57:05;;;;;;;3.43;1.33;;;18.20;43.20;;;;;;5024312;28;20158;-77
2022/07/07 11:00:09;;;;;;;3.87;1.10;;;18.20;46.00;;;;;;5025087;28;20589;-76
2022/07/07 11:02:52;;;;;;;2.80;1.53;;;18.30;43.10;;;;;;5025594;28;20543;-76
2022/07/07 11:05:17;;;;;;;6.40;1.13;;;18.40;42.90;;;;;;5032621;28;20175;-77
2022/07/07 11:08:07;;;;;;;2.70;1.00;;;18.40;40.50;;;;;;5016167;28;20170;-77
2022/07/07 11:10:39;;;;;;;4.07;1.00;;;18.40;35.50;;;;;;5015255;28;20169;-78
2022/07/07 11:13:28;;;;;;;2.93;1.10;;;18.60;31.30;;;;;;5015736;28;20257;-78
2022/07/07 11:16:14;;;;;;;4.57;1.30;;;18.80;29.40;;;;;;5016109;28;20182;-75
2022/07/07 11:18:41;;;;;;;6.13;1.80;;;19.00;26.60;;;;;;5021950;28;20206;-77
2022/07/07 11:21:08;;;;;;;4.03;1.20;;;19.00;21.40;;;;;;5015591;28;20497;-79
2022/07/07 11:23:49;;;;;;;3.53;1.30;;;19.10;22.70;;;;;;5015376;28;20170;-78
2022/07/07 11:26:18;;;;;;;5.27;1.20;;;19.20;20.50;;;;;;5030538;28;20201;-78
2022/07/07 11:28:44;;;;;;;3.10;1.33;;;18.90;27.90;;;;;;5015024;28;20193;-77
2022/07/07 11:31:10;;;;;;;5.07;1.60;;;18.70;44.10;;;;;;5015054;28;20206;-79
2022/07/07 11:33:37;;;;;;;3.50;1.50;;;18.60;53.10;;;;;;5015179;28;20174;-78
2022/07/07 11:36:33;;;;;;;6.20;1.60;;;18.40;63.90;;;;;;5015241;28;20167;-83
2022/07/07 11:39:04;;;;;;;3.60;1.50;;;18.30;70.40;;;;;;5023191;28;20261;-77
2022/07/07 11:41:38;;;;;;;3.13;1.23;;;18.30;73.80;;;;;;5015389;28;20190;-77
2022/07/07 11:44:05;;;;;;;2.53;1.17;;;18.30;64.00;;;;;;5015310;28;20180;-76
2022/07/07 11:46:31;;;;;;;5.47;1.40;;;18.30;53.00;;;;;;5015443;28;20197;-77
2022/07/07 11:48:57;;;;;;;7.00;1.87;;;18.40;53.10;;;;;;5015396;28;20194;-76
2022/07/07 11:51:30;;;;;;;4.03;1.40;;;18.60;48.30;;;;;;5020122;28;20269;-76
2022/07/07 11:53:59;;;;;;;6.70;1.40;;;18.80;38.90;;;;;;5022370;28;20171;-76
2022/07/07 11:56:32;;;;;;;6.27;1.63;;;19.00;36.30;;;;;;5030886;28;20175;-76
2022/07/07 11:58:59;;;;;;;4.13;1.23;;;19.20;28.20;;;;;;5014869;28;20168;-76
2022/07/07 12:01:29;;;;;;;1.97;1.10;;;19.30;17.20;;;;;;5015227;28;20277;-77
2022/07/07 12:03:55;;;;;;;6.57;1.37;;;19.30;1.00;;;;;;5015574;28;20636;-84
2022/07/07 12:06:26;;;;;;;2.63;0.83;;;19.30;2.30;;;;;;5027243;28;20178;-79
2022/07/07 12:08:52;;;;;;;6.70;1.57;;;19.10;10.60;;;;;;5016534;28;20569;-78
2022/07/07 12:11:20;;;;;;;3.77;0.90;;;18.80;23.60;;;;;;5016891;28;20273;-82
2022/07/07 12:13:46;;;;;;;4.63;1.23;;;18.60;25.20;;;;;;5015291;28;20170;-76
2022/07/07 12:16:13;;;;;;;6.10;1.33;;;18.60;31.00;;;;;;5015154;28;20174;-76
2022/07/07 12:18:41;;;;;;;3.33;1.10;;;18.50;28.40;;;;;;5014990;28;20166;-79
2022/07/07 12:21:09;;;;;;;4.40;1.20;;;18.40;32.30;;;;;;5015067;28;20182;-77
2022/07/07 12:23:38;;;;;;;4.60;1.20;;;18.50;31.80;;;;;;5013717;28;20162;-77
2022/07/07 12:26:41;;;;;;;4.97;1.60;;;18.60;32.30;;;;;;5014787;28;20171;-77
2022/07/07 12:29:08;;;;;;;6.27;1.57;;;18.60;34.00;;;;;;5029704;28;20186;-78
2022/07/07 12:31:35;;;;;;;7.13;1.60;;;18.90;28.70;;;;;;5014556;28;20250;-78
2022/07/07 12:34:11;;;;;;;4.70;1.20;;;19.00;25.90;;;;;;5015108;28;20170;-77
2022/07/07 12:36:40;;;;;;;5.90;1.70;;;19.20;21.00;;;;;;5015979;28;20642;-77
2022/07/07 12:39:06;;;;;;;5.70;1.23;;;19.20;16.90;;;;;;5016063;28;20166;-77
2022/07/07 12:41:34;;;;;;;3.20;1.20;;;19.10;13.70;;;;;;5015058;28;20208;-80
2022/07/07 12:44:29;;;;;;;3.30;1.23;;;19.10;16.10;;;;;;5014627;28;20174;-77
2022/07/07 12:46:59;;;;;;;4.23;1.23;;;19.20;14.60;;;;;;5046206;28;20209;-78
2022/07/07 12:49:24;;;;;;;2.47;1.00;;;19.30;9.50;;;;;;5029950;28;20599;-77
2022/07/07 12:51:51;;;;;;;5.07;1.53;;;19.30;2.90;;;;;;5014395;28;20681;-77
2022/07/07 12:54:28;;;;;;;3.83;1.20;;;19.30;1.00;;;;;;5015435;28;20172;-81